createdAt,value
2022-11-18T00:04:12.006Z,11.00
2022-11-18T00:09:15.267Z,11.16
2022-11-18T00:14:23.809Z,11.42
2022-11-18T00:19:38.968Z,11.61
2022-11-18T00:24:41.921Z,11.92
2022-11-18T00:29:45.170Z,12.23
2022-11-18T00:34:48.710Z,12.28
2022-11-18T00:39:51.828Z,12.30
2022-11-18T00:44:54.866Z,12.43
2022-11-18T00:49:58.296Z,12.53
2022-11-18T00:55:01.418Z,12.65
2022-11-18T01:00:04.987Z,12.72
2022-11-18T01:05:09.036Z,12.64
2022-11-18T01:10:12.517Z,12.48
2022-11-18T01:15:15.708Z,12.79
2022-11-18T01:20:19.085Z,12.79
2022-11-18T01:25:22.071Z,12.98
2022-11-18T01:30:25.977Z,13.07
2022-11-18T01:35:29.932Z,12.74
2022-11-18T01:40:34.964Z,12.80
2022-11-18T01:45:40.398Z,12.68
2022-11-18T01:50:57.029Z,12.52
2022-11-18T01:56:06.210Z,12.32
2022-11-18T02:01:10.207Z,12.10
2022-11-18T02:06:14.301Z,11.93
2022-11-18T02:11:36.855Z,11.75
2022-11-18T02:17:06.641Z,11.40
2022-11-18T02:22:43.620Z,11.61
2022-11-18T02:28:16.241Z,11.88
2022-11-18T02:33:40.094Z,12.33
2022-11-18T02:38:50.172Z,12.40
2022-11-18T02:43:57.402Z,12.60
2022-11-18T02:49:05.208Z,12.66
2022-11-18T02:54:12.768Z,12.62
2022-11-18T02:59:19.626Z,12.84
2022-11-18T03:04:23.428Z,12.91
2022-11-18T03:09:37.071Z,13.08
2022-11-18T03:14:49.118Z,13.21
2022-11-18T03:20:11.441Z,13.12
2022-11-18T03:25:35.043Z,13.12
2022-11-18T03:30:45.190Z,12.63
2022-11-18T03:35:52.139Z,12.21
2022-11-18T03:41:00.895Z,11.85
2022-11-18T03:46:19.021Z,11.27
2022-11-18T03:51:32.159Z,11.06
2022-11-18T03:56:49.160Z,10.66
2022-11-18T04:02:04.200Z,11.03
2022-11-18T04:07:26.391Z,10.68
2022-11-18T04:12:33.924Z,10.13
2022-11-18T04:17:37.392Z,9.82
2022-11-18T04:22:40.445Z,9.50
2022-11-18T04:27:44.533Z,9.89
2022-11-18T04:32:47.937Z,9.68
2022-11-18T04:37:51.474Z,9.46
2022-11-18T04:43:17.692Z,9.24
2022-11-18T04:48:26.422Z,9.15
2022-11-18T04:53:30.036Z,9.44
2022-11-18T04:58:33.846Z,9.28
2022-11-18T05:03:37.474Z,9.15
2022-11-18T05:08:40.849Z,9.44
2022-11-18T05:13:44.804Z,9.32
2022-11-18T05:18:48.323Z,9.34
2022-11-18T05:23:51.736Z,9.71
2022-11-18T05:28:55.894Z,9.75
2022-11-18T05:33:59.517Z,9.66
2022-11-18T05:39:03.835Z,9.76
2022-11-18T05:44:09.512Z,10.14
2022-11-18T05:49:12.783Z,10.23
2022-11-18T05:54:19.326Z,10.17
2022-11-18T05:59:22.830Z,10.44
2022-11-18T06:04:39.048Z,10.46
2022-11-18T06:09:45.715Z,10.64
2022-11-18T06:19:46.367Z,11.36
2022-11-18T06:24:50.928Z,11.71
2022-11-18T06:29:54.551Z,12.29
2022-11-18T06:34:57.649Z,12.88
2022-11-18T06:40:00.768Z,13.36
2022-11-18T06:45:06.025Z,13.40
2022-11-18T06:55:36.394Z,18.36
2022-11-18T07:00:39.861Z,20.28
2022-11-18T07:05:42.964Z,21.63
2022-11-18T07:10:53.315Z,21.92
2022-11-18T07:15:56.696Z,23.05
2022-11-18T07:21:05.837Z,22.51
2022-11-18T07:26:09.599Z,22.69
2022-11-18T07:31:16.440Z,22.87
2022-11-18T07:36:23.205Z,22.96
2022-11-18T07:41:29.697Z,22.96
2022-11-18T07:46:35.798Z,23.22
2022-11-18T07:51:40.417Z,23.58
2022-11-18T07:56:43.637Z,23.24
2022-11-18T08:01:47.332Z,23.47
2022-11-18T08:06:50.537Z,23.75
2022-11-18T08:11:53.677Z,23.57
2022-11-18T08:16:57.383Z,23.66
2022-11-18T08:22:00.581Z,23.95
2022-11-18T08:27:04.374Z,25.19
2022-11-18T08:32:07.998Z,24.28
2022-11-18T08:37:11.544Z,23.62
2022-11-18T08:42:14.644Z,21.04
2022-11-18T08:47:18.540Z,19.64
2022-11-18T08:52:22.737Z,22.35
2022-11-18T08:57:29.276Z,22.99
2022-11-18T09:02:32.997Z,22.91
2022-11-18T09:07:36.807Z,23.70
2022-11-18T09:12:40.378Z,23.87
2022-11-18T09:17:43.611Z,22.94
2022-11-18T09:22:47.588Z,21.60
2022-11-18T09:27:53.216Z,20.01
2022-11-18T09:32:57.750Z,19.77
2022-11-18T09:38:01.932Z,18.72
2022-11-18T09:43:33.899Z,19.82
2022-11-18T09:48:57.341Z,19.01
2022-11-18T09:54:00.616Z,19.03
2022-11-18T09:59:05.019Z,18.21
2022-11-18T10:04:20.078Z,18.56
2022-11-18T10:09:28.597Z,18.23
2022-11-18T10:14:44.262Z,20.84
2022-11-18T10:19:55.608Z,21.86
2022-11-18T10:25:02.776Z,22.38
2022-11-18T10:30:14.925Z,22.62
2022-11-18T10:35:44.371Z,23.60
2022-11-18T10:40:52.337Z,22.90
2022-11-18T10:45:55.865Z,22.60
2022-11-18T10:51:19.307Z,22.69
2022-11-18T10:56:22.765Z,22.28
2022-11-18T11:01:27.991Z,22.47
2022-11-18T11:06:39.660Z,21.65
2022-11-18T11:11:57.413Z,21.30
2022-11-18T11:17:03.542Z,20.78
2022-11-18T11:22:13.858Z,22.15
2022-11-18T11:33:19.723Z,21.90
2022-11-18T11:38:59.888Z,22.56
2022-11-18T11:44:21.931Z,22.28
2022-11-18T11:49:35.550Z,21.68
2022-11-18T11:55:01.275Z,22.10
2022-11-18T12:00:20.301Z,21.98
2022-11-18T12:05:28.969Z,21.08
2022-11-18T12:11:14.793Z,20.23
2022-11-18T12:16:43.183Z,20.97
2022-11-18T12:21:46.782Z,20.74
2022-11-18T12:26:51.577Z,19.60
2022-11-18T12:32:04.694Z,20.20
2022-11-18T12:37:26.826Z,20.96
2022-11-18T12:43:05.214Z,20.30
2022-11-18T12:48:32.702Z,22.07
2022-11-18T12:53:53.128Z,23.43
2022-11-18T12:58:58.383Z,23.39
2022-11-18T13:04:22.839Z,23.20
2022-11-18T13:09:28.624Z,23.77
2022-11-18T13:14:55.465Z,24.44
2022-11-18T13:19:59.177Z,24.40
2022-11-18T13:25:02.954Z,24.09
2022-11-18T13:30:11.909Z,23.12
2022-11-18T13:35:18.883Z,22.79
2022-11-18T13:40:26.908Z,23.62
2022-11-18T13:45:31.513Z,23.59
2022-11-18T13:50:44.322Z,22.16
2022-11-18T13:56:02.193Z,21.21
2022-11-18T14:01:13.807Z,20.53
2022-11-18T14:06:34.772Z,21.01
2022-11-18T14:11:43.943Z,19.65
2022-11-18T14:16:48.089Z,19.54
2022-11-18T14:22:18.359Z,19.89
2022-11-18T14:27:39.899Z,21.17
2022-11-18T14:32:44.027Z,20.62
2022-11-18T14:37:47.748Z,19.14
2022-11-18T14:42:51.742Z,18.79
2022-11-18T14:47:55.336Z,18.49
2022-11-18T14:52:59.275Z,18.11
2022-11-18T14:58:03.136Z,18.12
2022-11-18T15:03:06.871Z,18.04
2022-11-18T15:08:10.175Z,17.74
2022-11-18T15:13:14.218Z,17.84
2022-11-18T15:18:17.843Z,17.24
2022-11-18T15:23:25.705Z,17.17
2022-11-18T15:28:32.734Z,16.77
2022-11-18T15:33:35.888Z,16.84
2022-11-18T15:38:39.026Z,16.62
2022-11-18T15:43:42.536Z,16.36
2022-11-18T15:48:46.359Z,16.20
2022-11-18T15:53:49.815Z,15.83
2022-11-18T15:59:01.625Z,15.66
2022-11-18T16:04:08.534Z,15.59
2022-11-18T16:09:11.903Z,15.27
2022-11-18T16:14:18.161Z,15.22
2022-11-18T16:19:24.857Z,15.16
2022-11-18T16:24:29.384Z,14.97
2022-11-18T16:29:33.038Z,15.23
2022-11-18T16:34:38.753Z,14.84
2022-11-18T16:39:42.436Z,14.87
2022-11-18T16:44:45.801Z,14.69
2022-11-18T16:49:48.952Z,14.68
2022-11-18T16:54:53.464Z,14.93
2022-11-18T16:59:56.575Z,14.76
2022-11-18T17:05:00.072Z,14.77
2022-11-18T17:10:03.263Z,15.01
2022-11-18T17:15:15.639Z,14.58
2022-11-18T17:20:19.447Z,14.85
2022-11-18T17:25:23.001Z,14.89
2022-11-18T17:30:26.319Z,14.75
2022-11-18T17:35:29.761Z,14.74
2022-11-18T17:40:33.054Z,14.57
2022-11-18T17:45:41.624Z,14.39
2022-11-18T17:50:45.229Z,14.25
2022-11-18T17:55:49.383Z,14.08
2022-11-18T18:00:53.008Z,14.06
2022-11-18T18:06:02.871Z,14.08
2022-11-18T18:11:11.159Z,13.96
2022-11-18T18:16:14.690Z,13.76
2022-11-18T18:21:18.453Z,13.72
2022-11-18T18:26:25.367Z,13.86
2022-11-18T18:31:37.630Z,13.89
2022-11-18T18:36:41.544Z,13.79
2022-11-18T18:41:45.233Z,13.77
2022-11-18T18:46:49.903Z,13.86
2022-11-18T18:51:55.879Z,13.93
2022-11-18T18:56:59.816Z,14.22
2022-11-18T19:02:03.937Z,14.35
2022-11-18T19:07:08.107Z,14.24
2022-11-18T19:12:29.903Z,14.37
2022-11-18T19:17:33.779Z,14.75
2022-11-18T19:22:37.044Z,14.71
2022-11-18T19:27:41.517Z,14.62
2022-11-18T19:32:44.595Z,14.79
2022-11-18T19:37:47.654Z,14.76
2022-11-18T19:42:51.231Z,14.74
2022-11-18T19:47:57.819Z,14.69
2022-11-18T19:53:21.274Z,14.78
2022-11-18T19:58:24.572Z,14.84
2022-11-18T20:03:28.845Z,14.14
2022-11-18T20:08:35.242Z,13.82
2022-11-18T20:13:40.200Z,13.62
2022-11-18T20:18:44.258Z,14.02
2022-11-18T20:23:50.625Z,13.84
2022-11-18T20:28:57.627Z,13.65
2022-11-18T20:34:01.375Z,13.65
2022-11-18T20:39:07.961Z,13.58
2022-11-18T20:44:11.609Z,13.47
2022-11-18T20:49:15.042Z,13.77
2022-11-18T20:54:18.569Z,13.41
2022-11-18T20:59:21.966Z,13.58
2022-11-18T21:04:25.030Z,13.34
2022-11-18T21:09:33.340Z,13.51
2022-11-18T21:14:36.485Z,13.41
2022-11-18T21:19:39.724Z,13.15
2022-11-18T21:24:43.133Z,13.24
2022-11-18T21:29:50.122Z,13.36
2022-11-18T21:34:53.450Z,13.52
2022-11-18T21:39:56.611Z,13.62
2022-11-18T21:45:00.610Z,13.61
2022-11-18T21:50:03.940Z,13.62
2022-11-18T21:55:08.291Z,13.50
2022-11-18T22:00:11.905Z,13.47
2022-11-18T22:05:15.649Z,13.56
2022-11-18T22:10:19.285Z,13.62
2022-11-18T22:15:22.976Z,13.78
2022-11-18T22:20:26.904Z,13.65
2022-11-18T22:25:30.058Z,13.59
2022-11-18T22:30:33.589Z,13.71
2022-11-18T22:35:37.293Z,13.59
2022-11-18T22:40:40.809Z,13.79
2022-11-18T22:45:44.557Z,13.88
2022-11-18T22:50:57.188Z,13.91
2022-11-18T22:56:06.463Z,13.99
2022-11-18T23:01:15.162Z,14.23
2022-11-18T23:06:19.003Z,14.22
2022-11-18T23:11:42.174Z,14.23
2022-11-18T23:16:46.193Z,14.11
2022-11-18T23:21:49.774Z,13.89
2022-11-18T23:26:53.349Z,13.92
2022-11-18T23:31:57.084Z,14.05
2022-11-18T23:37:00.421Z,14.04
2022-11-18T23:42:05.482Z,14.12
2022-11-18T23:47:08.880Z,14.05
2022-11-18T23:52:13.154Z,14.45
2022-11-18T23:57:16.938Z,14.61
